createdAt,value
2022-12-07T00:03:02.537Z,3.27
2022-12-07T00:05:31.273Z,3.33
2022-12-07T00:07:59.398Z,3.30
2022-12-07T00:10:28.524Z,3.27
2022-12-07T00:12:56.507Z,3.30
2022-12-07T00:15:23.963Z,3.36
2022-12-07T00:17:51.697Z,3.37
2022-12-07T00:20:19.236Z,3.45
2022-12-07T00:22:47.100Z,3.38
2022-12-07T00:25:14.598Z,3.35
2022-12-07T00:27:43.799Z,3.45
2022-12-07T00:30:11.554Z,3.40
2022-12-07T00:32:39.337Z,3.32
2022-12-07T00:35:07.239Z,3.37
2022-12-07T00:37:35.163Z,3.33
2022-12-07T00:40:02.641Z,3.23
2022-12-07T00:42:30.679Z,3.26
2022-12-07T00:44:59.440Z,3.24
2022-12-07T00:47:27.238Z,3.27
2022-12-07T00:49:54.529Z,3.22
2022-12-07T00:52:25.418Z,3.06
2022-12-07T00:54:53.034Z,3.00
2022-12-07T00:57:20.807Z,3.00
2022-12-07T00:59:48.942Z,3.06
2022-12-07T01:02:18.143Z,3.16
2022-12-07T01:04:45.640Z,3.10
2022-12-07T01:07:13.467Z,3.00
2022-12-07T01:09:40.911Z,3.04
2022-12-07T01:12:08.696Z,2.99
2022-12-07T01:14:35.916Z,2.81
2022-12-07T01:17:03.837Z,2.85
2022-12-07T01:19:32.723Z,2.82
2022-12-07T01:22:00.412Z,2.82
2022-12-07T01:24:27.719Z,2.92
2022-12-07T01:26:55.507Z,2.84
2022-12-07T01:29:23.055Z,2.78
2022-12-07T01:31:50.886Z,2.89
2022-12-07T01:34:18.239Z,2.94
2022-12-07T01:36:47.411Z,2.92
2022-12-07T01:39:14.712Z,2.90
2022-12-07T01:41:42.887Z,2.83
2022-12-07T01:44:17.845Z,2.77
2022-12-07T01:46:47.032Z,2.89
2022-12-07T01:49:19.909Z,2.95
2022-12-07T01:51:52.873Z,2.90
2022-12-07T01:54:22.107Z,2.82
2022-12-07T01:56:52.867Z,2.68
2022-12-07T01:59:22.857Z,2.71
2022-12-07T02:01:52.594Z,2.66
2022-12-07T02:04:20.497Z,2.69
2022-12-07T02:06:50.452Z,2.70
2022-12-07T02:09:17.797Z,2.73
2022-12-07T02:11:45.619Z,2.75
2022-12-07T02:14:12.944Z,2.75
2022-12-07T02:16:52.281Z,2.78
2022-12-07T02:20:05.592Z,2.78
2022-12-07T02:23:13.309Z,2.76
2022-12-07T02:25:58.400Z,2.71
2022-12-07T02:28:31.413Z,2.72
2022-12-07T02:31:05.471Z,2.76
2022-12-07T02:33:38.058Z,2.89
2022-12-07T02:36:10.685Z,2.93
2022-12-07T02:38:44.922Z,2.84
2022-12-07T02:41:18.932Z,2.91
2022-12-07T02:43:50.612Z,3.03
2022-12-07T02:46:27.971Z,3.01
2022-12-07T02:48:56.692Z,3.01
2022-12-07T02:51:24.429Z,2.90
2022-12-07T02:53:52.526Z,2.87
2022-12-07T02:56:29.074Z,2.76
2022-12-07T02:59:07.502Z,2.76
2022-12-07T03:01:44.707Z,2.75
2022-12-07T03:04:28.638Z,2.84
2022-12-07T03:07:03.639Z,2.86
2022-12-07T03:09:36.992Z,2.93
2022-12-07T03:12:11.209Z,3.08
2022-12-07T03:14:46.088Z,3.02
2022-12-07T03:17:20.665Z,2.92
2022-12-07T03:19:52.644Z,2.75
2022-12-07T03:22:21.486Z,2.80
2022-12-07T03:24:53.593Z,2.82
2022-12-07T03:27:25.109Z,2.85
2022-12-07T03:29:57.245Z,2.78
2022-12-07T03:32:32.193Z,2.84
2022-12-07T03:35:04.612Z,2.81
2022-12-07T03:37:37.526Z,2.84
2022-12-07T03:40:15.640Z,2.85
2022-12-07T03:42:43.889Z,2.91
2022-12-07T03:45:13.684Z,2.70
2022-12-07T03:47:49.085Z,2.78
2022-12-07T03:50:25.815Z,2.81
2022-12-07T03:52:57.870Z,2.81
2022-12-07T03:55:30.552Z,2.79
2022-12-07T03:58:01.323Z,2.84
2022-12-07T04:00:29.619Z,2.82
2022-12-07T04:02:59.172Z,2.70
2022-12-07T04:05:27.645Z,2.78
2022-12-07T04:07:55.161Z,2.88
2022-12-07T04:10:23.275Z,2.80
2022-12-07T04:12:50.847Z,2.90
2022-12-07T04:15:18.870Z,2.87
2022-12-07T04:17:46.255Z,2.90
2022-12-07T04:20:15.959Z,2.83
2022-12-07T04:22:43.535Z,2.82
2022-12-07T04:25:11.181Z,2.77
2022-12-07T04:27:38.671Z,2.91
2022-12-07T04:30:07.947Z,2.97
2022-12-07T04:32:35.322Z,3.01
2022-12-07T04:35:03.879Z,2.91
2022-12-07T04:37:32.682Z,2.99
2022-12-07T04:40:00.786Z,3.05
2022-12-07T04:42:29.223Z,2.96
2022-12-07T04:44:57.524Z,2.98
2022-12-07T04:47:24.897Z,3.05
2022-12-07T04:49:52.577Z,3.04
2022-12-07T04:52:19.915Z,3.13
2022-12-07T04:54:49.324Z,3.13
2022-12-07T04:57:16.766Z,3.11
2022-12-07T04:59:45.927Z,3.11
2022-12-07T05:02:13.829Z,3.23
2022-12-07T05:04:41.836Z,3.20
2022-12-07T05:07:09.162Z,3.13
2022-12-07T05:09:37.043Z,2.89
2022-12-07T05:12:06.197Z,2.96
2022-12-07T05:14:34.114Z,2.89
2022-12-07T05:17:04.467Z,2.91
2022-12-07T05:19:32.519Z,2.91
2022-12-07T05:21:59.900Z,2.83
2022-12-07T05:24:27.993Z,2.87
2022-12-07T05:26:55.559Z,2.84
2022-12-07T05:29:25.023Z,2.83
2022-12-07T05:31:52.424Z,2.97
2022-12-07T05:34:20.680Z,2.99
2022-12-07T05:36:47.945Z,3.04
2022-12-07T05:39:15.778Z,3.02
2022-12-07T05:41:43.330Z,3.05
2022-12-07T05:44:11.335Z,2.90
2022-12-07T05:46:40.294Z,2.95
2022-12-07T05:49:08.136Z,2.99
2022-12-07T05:51:35.646Z,2.87
2022-12-07T05:54:03.629Z,2.89
2022-12-07T05:56:31.065Z,2.99
2022-12-07T05:58:58.834Z,2.96
2022-12-07T06:01:26.391Z,2.81
2022-12-07T06:03:55.953Z,2.90
2022-12-07T06:06:23.374Z,2.88
2022-12-07T06:08:51.504Z,2.84
2022-12-07T06:11:18.863Z,2.92
2022-12-07T06:13:47.543Z,2.98
2022-12-07T06:16:15.120Z,2.79
2022-12-07T06:18:42.923Z,2.76
2022-12-07T06:21:11.758Z,2.70
2022-12-07T06:23:39.571Z,2.79
2022-12-07T06:26:06.979Z,2.77
2022-12-07T06:28:34.932Z,2.89
2022-12-07T06:31:03.312Z,2.88
2022-12-07T06:33:31.318Z,2.85
2022-12-07T06:35:58.767Z,2.89
2022-12-07T06:38:27.912Z,2.95
2022-12-07T06:40:55.562Z,2.85
2022-12-07T06:43:23.228Z,2.94
2022-12-07T06:45:50.593Z,2.88
2022-12-07T06:48:18.427Z,2.83
2022-12-07T06:50:49.885Z,2.86
2022-12-07T06:53:22.004Z,2.80
2022-12-07T06:55:50.880Z,2.74
2022-12-07T06:58:19.042Z,2.66
2022-12-07T07:00:46.826Z,2.65
2022-12-07T07:03:14.917Z,2.66
2022-12-07T07:05:42.785Z,2.69
2022-12-07T07:08:26.343Z,2.69
2022-12-07T07:10:55.492Z,2.85
2022-12-07T07:13:23.334Z,2.89
2022-12-07T07:15:50.758Z,2.84
2022-12-07T07:18:18.856Z,2.90
2022-12-07T07:20:46.227Z,2.91
2022-12-07T07:23:14.534Z,3.02
2022-12-07T07:25:41.990Z,3.15
2022-12-07T07:28:15.079Z,3.25
2022-12-07T07:30:42.389Z,3.38
2022-12-07T07:33:11.155Z,3.25
2022-12-07T07:35:38.847Z,3.30
2022-12-07T07:38:06.999Z,3.42
2022-12-07T07:40:34.439Z,3.76
2022-12-07T07:43:02.437Z,4.14
2022-12-07T07:45:31.362Z,4.38
2022-12-07T07:47:59.133Z,4.78
2022-12-07T07:50:26.501Z,5.12
2022-12-07T07:52:54.345Z,5.15
2022-12-07T07:55:21.751Z,5.21
2022-12-07T07:57:54.521Z,5.13
2022-12-07T08:00:23.181Z,4.74
2022-12-07T08:02:52.259Z,4.55
2022-12-07T08:05:19.707Z,4.49
2022-12-07T08:07:47.649Z,4.24
2022-12-07T08:10:15.227Z,4.01
2022-12-07T08:12:44.327Z,3.94
2022-12-07T08:15:11.751Z,4.11
2022-12-07T08:17:39.869Z,4.05
2022-12-07T08:20:09.430Z,4.14
2022-12-07T08:22:37.161Z,4.35
2022-12-07T08:25:05.088Z,4.49
2022-12-07T08:27:32.977Z,4.82
2022-12-07T08:30:00.854Z,5.05
2022-12-07T08:32:29.170Z,5.33
2022-12-07T08:34:56.723Z,5.23
2022-12-07T08:37:26.386Z,5.29
2022-12-07T08:39:53.674Z,5.52
2022-12-07T08:42:22.071Z,5.59
2022-12-07T08:44:49.605Z,6.00
2022-12-07T08:47:17.348Z,5.90
2022-12-07T08:49:48.737Z,6.25
2022-12-07T08:52:17.208Z,6.25
2022-12-07T08:54:46.591Z,6.26
2022-12-07T08:57:14.464Z,5.82
2022-12-07T08:59:41.948Z,5.64
2022-12-07T09:02:10.145Z,5.71
2022-12-07T09:04:37.732Z,5.99
2022-12-07T09:07:05.838Z,5.66
2022-12-07T09:09:33.941Z,5.26
2022-12-07T09:12:03.659Z,5.46
2022-12-07T09:14:31.087Z,5.32
2022-12-07T09:17:07.277Z,5.14
2022-12-07T09:19:34.638Z,5.07
2022-12-07T09:22:05.545Z,4.97
2022-12-07T09:24:33.221Z,5.15
2022-12-07T09:27:02.595Z,5.19
2022-12-07T09:29:29.968Z,5.11
2022-12-07T09:31:58.172Z,4.76
2022-12-07T09:34:25.734Z,4.42
2022-12-07T09:36:53.986Z,4.47
2022-12-07T09:39:21.436Z,4.45
2022-12-07T09:41:49.484Z,4.58
2022-12-07T09:44:27.671Z,4.74
2022-12-07T09:46:57.278Z,4.83
2022-12-07T09:49:26.477Z,4.82
2022-12-07T09:52:02.809Z,4.79
2022-12-07T09:54:31.241Z,5.01
2022-12-07T09:57:00.095Z,4.95
2022-12-07T09:59:33.750Z,4.98
2022-12-07T10:02:25.343Z,4.93
2022-12-07T10:04:53.483Z,4.90
2022-12-07T10:07:21.546Z,5.04
2022-12-07T10:09:48.942Z,4.89
2022-12-07T10:12:16.760Z,4.94
2022-12-07T10:15:12.908Z,4.86
2022-12-07T10:17:42.489Z,4.78
2022-12-07T10:20:15.840Z,4.93
2022-12-07T10:22:57.016Z,4.97
2022-12-07T10:25:28.843Z,4.85
2022-12-07T10:28:02.180Z,4.71
2022-12-07T10:30:32.952Z,4.64
2022-12-07T10:33:03.722Z,4.48
2022-12-07T10:35:31.563Z,4.45
2022-12-07T10:38:00.835Z,4.25
2022-12-07T10:40:32.658Z,4.21
2022-12-07T10:43:05.844Z,4.25
2022-12-07T10:46:02.621Z,4.12
2022-12-07T10:48:40.269Z,3.92
2022-12-07T10:51:11.987Z,3.72
2022-12-07T10:53:53.884Z,3.60
2022-12-07T10:56:52.821Z,3.63
2022-12-07T10:59:47.388Z,3.72
2022-12-07T11:02:45.548Z,3.81
2022-12-07T11:05:23.525Z,3.84
2022-12-07T11:08:04.325Z,3.93
2022-12-07T11:10:42.590Z,3.91
2022-12-07T11:13:28.701Z,3.95
2022-12-07T11:16:06.534Z,3.91
2022-12-07T11:18:44.516Z,3.84
2022-12-07T11:21:22.272Z,3.87
2022-12-07T11:24:02.127Z,3.99
2022-12-07T11:26:48.098Z,4.07
2022-12-07T11:29:35.213Z,3.97
2022-12-07T11:32:12.341Z,4.09
2022-12-07T11:34:52.629Z,4.10
2022-12-07T11:37:26.826Z,3.94
2022-12-07T11:39:56.637Z,4.05
2022-12-07T11:42:27.573Z,3.98
2022-12-07T11:45:01.386Z,4.00
2022-12-07T11:47:37.951Z,4.04
2022-12-07T11:50:26.100Z,4.04
2022-12-07T11:52:58.961Z,4.01
2022-12-07T11:55:33.712Z,4.00
2022-12-07T11:58:07.325Z,4.04
2022-12-07T12:00:35.830Z,4.18
2022-12-07T12:03:10.497Z,4.16
2022-12-07T12:05:40.425Z,4.07
2022-12-07T12:11:16.736Z,4.15
2022-12-07T12:14:33.814Z,4.28
2022-12-07T12:17:38.838Z,4.46
2022-12-07T12:20:20.015Z,4.40
2022-12-07T12:22:54.504Z,4.46
2022-12-07T12:25:25.844Z,4.45
2022-12-07T12:27:56.541Z,4.38
2022-12-07T12:30:36.639Z,4.46
2022-12-07T12:33:15.552Z,4.46
2022-12-07T12:35:43.620Z,4.43
2022-12-07T12:38:33.075Z,4.53
2022-12-07T12:41:02.467Z,4.50
2022-12-07T12:43:50.677Z,4.47
2022-12-07T12:46:50.033Z,4.46
2022-12-07T12:49:35.566Z,4.36
2022-12-07T12:52:50.841Z,4.39
2022-12-07T12:55:49.061Z,4.29
2022-12-07T12:58:30.870Z,4.25
2022-12-07T13:01:40.895Z,4.28
2022-12-07T13:04:27.250Z,4.37
2022-12-07T13:06:54.783Z,4.42
2022-12-07T13:09:25.646Z,4.39
2022-12-07T13:12:02.665Z,4.43
2022-12-07T13:14:58.437Z,4.35
2022-12-07T13:18:04.281Z,4.48
2022-12-07T13:20:46.223Z,4.40
2022-12-07T13:23:16.230Z,4.39
2022-12-07T13:25:52.160Z,4.43
2022-12-07T13:28:23.429Z,4.47
2022-12-07T13:31:04.419Z,4.42
2022-12-07T13:33:32.201Z,4.51
2022-12-07T13:36:00.195Z,4.47
2022-12-07T13:38:30.818Z,4.51
2022-12-07T13:41:13.133Z,4.61
2022-12-07T13:44:02.511Z,4.60
2022-12-07T13:46:45.887Z,4.45
2022-12-07T13:49:23.172Z,4.53
2022-12-07T13:51:51.727Z,4.58
2022-12-07T13:54:21.030Z,4.57
2022-12-07T13:56:52.197Z,4.57
2022-12-07T13:59:23.640Z,4.45
2022-12-07T14:01:53.182Z,4.50
2022-12-07T14:04:31.936Z,4.55
2022-12-07T14:07:00.492Z,4.48
2022-12-07T14:09:29.529Z,4.52
2022-12-07T14:11:58.792Z,4.38
2022-12-07T14:14:35.945Z,4.37
2022-12-07T14:17:16.222Z,4.29
2022-12-07T14:19:49.209Z,4.37
2022-12-07T14:22:29.797Z,4.28
2022-12-07T14:25:17.208Z,4.20
2022-12-07T14:27:53.468Z,4.15
2022-12-07T14:30:23.265Z,4.11
2022-12-07T14:32:54.338Z,4.17
2022-12-07T14:35:21.814Z,4.16
2022-12-07T14:37:50.541Z,4.06
2022-12-07T14:40:20.879Z,4.03
2022-12-07T14:42:52.488Z,4.05
2022-12-07T14:45:22.920Z,4.03
2022-12-07T14:53:32.109Z,3.89
2022-12-07T14:55:59.394Z,3.77
2022-12-07T14:58:27.084Z,3.74
2022-12-07T15:00:55.964Z,3.78
2022-12-07T15:03:24.335Z,3.71
2022-12-07T15:05:51.755Z,3.77
2022-12-07T15:08:19.650Z,3.77
2022-12-07T15:10:47.225Z,3.83
2022-12-07T15:13:15.278Z,3.80
2022-12-07T15:15:42.781Z,3.73
2022-12-07T15:18:12.439Z,3.73
2022-12-07T15:20:39.841Z,3.90
2022-12-07T15:23:07.684Z,3.85
2022-12-07T15:25:35.084Z,3.85
2022-12-07T15:28:03.820Z,3.84
2022-12-07T15:30:31.113Z,3.74
2022-12-07T15:32:59.521Z,3.89
2022-12-07T15:35:28.292Z,3.85
2022-12-07T15:37:56.103Z,3.75
2022-12-07T15:40:23.495Z,3.70
2022-12-07T15:42:51.673Z,3.71
2022-12-07T15:45:19.578Z,3.73
2022-12-07T15:48:26.126Z,3.59
2022-12-07T15:50:36.292Z,3.56
2022-12-07T15:53:04.281Z,3.58
2022-12-07T15:55:32.203Z,3.52
2022-12-07T15:58:00.851Z,3.56
2022-12-07T16:00:28.170Z,3.52
2022-12-07T16:02:55.972Z,3.62
2022-12-07T16:05:23.574Z,3.50
2022-12-07T16:07:52.767Z,3.61
2022-12-07T16:10:20.242Z,3.52
2022-12-07T16:12:48.223Z,3.54
2022-12-07T16:15:18.951Z,3.35
2022-12-07T16:17:50.651Z,3.29
2022-12-07T16:20:18.213Z,3.16
2022-12-07T16:22:46.029Z,3.06
2022-12-07T16:25:14.921Z,2.96
2022-12-07T16:27:43.181Z,3.06
2022-12-07T16:30:13.782Z,3.13
2022-12-07T16:32:41.994Z,3.17
2022-12-07T16:35:10.116Z,3.03
2022-12-07T16:37:38.416Z,3.02
2022-12-07T16:40:07.332Z,3.11
2022-12-07T16:42:37.299Z,2.89
2022-12-07T16:45:05.919Z,2.75
2022-12-07T16:47:33.964Z,2.80
2022-12-07T16:50:01.415Z,2.78
2022-12-07T16:52:29.237Z,2.74
2022-12-07T16:54:56.705Z,2.59
2022-12-07T16:57:24.545Z,2.51
2022-12-07T16:59:53.621Z,2.68
2022-12-07T17:02:21.562Z,2.66
2022-12-07T17:04:48.963Z,2.71
2022-12-07T17:07:16.823Z,2.43
2022-12-07T17:09:44.352Z,2.60
2022-12-07T17:12:12.516Z,2.43
2022-12-07T17:14:40.132Z,2.37
2022-12-07T17:17:09.509Z,2.16
2022-12-07T17:19:36.934Z,2.26
2022-12-07T17:22:04.701Z,2.28
2022-12-07T17:24:32.095Z,2.17
2022-12-07T17:26:59.864Z,2.29
2022-12-07T17:29:27.212Z,2.37
2022-12-07T17:31:54.920Z,2.32
2022-12-07T17:34:23.767Z,2.07
2022-12-07T17:36:51.751Z,1.99
2022-12-07T17:39:19.870Z,2.15
2022-12-07T17:41:48.038Z,2.18
2022-12-07T17:44:18.190Z,2.11
2022-12-07T17:46:47.465Z,2.15
2022-12-07T17:49:15.206Z,2.29
2022-12-07T17:51:44.784Z,2.26
2022-12-07T17:54:13.427Z,2.26
2022-12-07T17:56:41.380Z,2.25
2022-12-07T17:59:09.267Z,2.05
2022-12-07T18:01:37.976Z,2.16
2022-12-07T18:04:06.414Z,2.14
2022-12-07T18:06:35.278Z,2.16
2022-12-07T18:09:04.750Z,2.07
2022-12-07T18:11:32.643Z,2.14
2022-12-07T18:14:00.184Z,2.04
2022-12-07T18:16:30.511Z,2.07
2022-12-07T18:19:00.384Z,2.22
2022-12-07T18:21:30.365Z,2.27
2022-12-07T18:24:00.540Z,2.22
2022-12-07T18:26:31.640Z,2.03
2022-12-07T18:28:59.571Z,1.95
2022-12-07T18:31:27.726Z,2.12
2022-12-07T18:33:55.028Z,2.26
2022-12-07T18:36:23.760Z,2.28
2022-12-07T18:38:51.194Z,2.13
2022-12-07T18:41:19.657Z,2.24
2022-12-07T18:43:48.862Z,2.25
2022-12-07T18:46:19.695Z,2.11
2022-12-07T18:48:48.025Z,2.12
2022-12-07T18:51:16.502Z,2.13
2022-12-07T18:53:44.503Z,2.20
2022-12-07T18:56:14.245Z,2.24
2022-12-07T18:58:42.150Z,2.34
2022-12-07T19:01:11.468Z,2.38
2022-12-07T19:03:39.060Z,2.46
2022-12-07T19:06:07.951Z,2.41
2022-12-07T19:08:35.338Z,2.25
2022-12-07T19:11:03.144Z,2.20
2022-12-07T19:13:30.566Z,2.38
2022-12-07T19:15:58.604Z,2.30
2022-12-07T19:18:27.780Z,2.23
2022-12-07T19:20:55.601Z,2.19
2022-12-07T19:23:23.041Z,2.14
2022-12-07T19:25:50.964Z,2.10
2022-12-07T19:28:18.404Z,2.21
2022-12-07T19:30:47.668Z,2.23
2022-12-07T19:33:15.052Z,2.28
2022-12-07T19:35:44.295Z,2.26
2022-12-07T19:38:11.647Z,2.15
2022-12-07T19:40:39.493Z,2.14
2022-12-07T19:43:07.259Z,1.92
2022-12-07T19:45:35.380Z,2.01
2022-12-07T19:48:02.781Z,2.00
2022-12-07T19:50:30.700Z,1.94
2022-12-07T19:52:59.582Z,1.95
2022-12-07T19:55:27.552Z,2.14
2022-12-07T19:57:54.905Z,2.17
2022-12-07T20:00:23.257Z,2.32
2022-12-07T20:02:51.746Z,2.23
2022-12-07T20:05:19.640Z,2.38
2022-12-07T20:07:47.421Z,2.23
2022-12-07T20:10:19.404Z,2.23
2022-12-07T20:12:49.130Z,2.20
2022-12-07T20:15:17.247Z,2.31
2022-12-07T20:17:45.042Z,2.22
2022-12-07T20:20:13.355Z,2.23
2022-12-07T20:22:40.730Z,2.09
2022-12-07T20:25:09.721Z,2.21
2022-12-07T20:27:38.624Z,2.30
2022-12-07T20:30:08.271Z,2.37
2022-12-07T20:32:35.760Z,2.32
2022-12-07T20:35:04.023Z,2.31
2022-12-07T20:37:31.658Z,2.41
2022-12-07T20:39:59.347Z,2.35
2022-12-07T20:42:26.836Z,2.32
2022-12-07T20:45:01.165Z,2.34
2022-12-07T20:47:30.318Z,2.43
2022-12-07T20:49:58.236Z,2.53
2022-12-07T20:52:25.606Z,2.61
2022-12-07T20:54:53.843Z,2.70
2022-12-07T20:57:21.293Z,2.70
2022-12-07T20:59:49.445Z,2.68
2022-12-07T21:02:18.496Z,2.61
2022-12-07T21:04:47.066Z,2.63
2022-12-07T21:07:14.923Z,2.70
2022-12-07T21:09:42.835Z,2.66
2022-12-07T21:12:10.354Z,2.73
2022-12-07T21:14:40.291Z,2.87
2022-12-07T21:17:08.051Z,2.96
2022-12-07T21:19:38.358Z,2.91
2022-12-07T21:22:05.993Z,2.90
2022-12-07T21:24:34.473Z,2.94
2022-12-07T21:27:02.014Z,2.96
2022-12-07T21:29:43.364Z,3.00
2022-12-07T21:32:13.405Z,2.94
2022-12-07T21:34:42.859Z,3.06
2022-12-07T21:37:10.361Z,3.19
2022-12-07T21:39:38.334Z,3.21
2022-12-07T21:42:06.021Z,3.15
2022-12-07T21:44:34.677Z,3.18
2022-12-07T21:47:02.244Z,3.23
2022-12-07T21:49:30.205Z,3.27
2022-12-07T21:51:58.992Z,3.23
2022-12-07T21:54:27.016Z,3.35
2022-12-07T21:56:54.441Z,3.37
2022-12-07T21:59:22.671Z,3.44
2022-12-07T22:01:51.426Z,3.51
2022-12-07T22:04:21.452Z,3.55
2022-12-07T22:06:49.513Z,3.63
2022-12-07T22:09:19.643Z,3.71
2022-12-07T22:11:47.312Z,3.67
2022-12-07T22:14:15.307Z,3.94
2022-12-07T22:16:42.746Z,3.82
2022-12-07T22:19:10.519Z,3.78
2022-12-07T22:21:38.019Z,3.76
2022-12-07T22:24:07.104Z,3.67
2022-12-07T22:26:36.041Z,3.60
2022-12-07T22:29:03.887Z,3.66
2022-12-07T22:31:31.342Z,3.77
2022-12-07T22:33:59.358Z,3.80
2022-12-07T22:36:26.820Z,3.76
2022-12-07T22:38:54.578Z,3.77
2022-12-07T22:41:25.301Z,3.75
2022-12-07T22:43:55.289Z,3.71
2022-12-07T22:46:23.176Z,3.65
2022-12-07T22:48:51.797Z,3.60
2022-12-07T22:51:24.240Z,3.72
2022-12-07T22:53:52.968Z,3.81
2022-12-07T22:56:21.861Z,3.91
2022-12-07T22:58:49.967Z,3.98
2022-12-07T23:01:20.731Z,3.76
2022-12-07T23:03:48.705Z,3.67
2022-12-07T23:06:17.745Z,3.64
2022-12-07T23:08:46.082Z,3.53
2022-12-07T23:11:16.196Z,3.56
2022-12-07T23:13:44.350Z,3.65
2022-12-07T23:16:13.951Z,3.58
2022-12-07T23:18:43.414Z,3.58
2022-12-07T23:21:10.649Z,3.62
2022-12-07T23:23:38.508Z,3.69
2022-12-07T23:26:07.547Z,3.62
2022-12-07T23:28:37.024Z,3.61
2022-12-07T23:31:04.977Z,3.73
2022-12-07T23:33:33.045Z,3.72
2022-12-07T23:36:09.651Z,3.73
2022-12-07T23:38:38.842Z,3.61
2022-12-07T23:41:07.798Z,3.52
2022-12-07T23:43:36.470Z,3.54
2022-12-07T23:46:08.280Z,3.18
2022-12-07T23:48:36.954Z,2.97
2022-12-07T23:51:04.819Z,2.75
2022-12-07T23:53:35.179Z,2.78
2022-12-07T23:56:03.211Z,2.70
2022-12-07T23:58:31.278Z,2.76
